EPRZ/RZE METAR and TAF weather

Enter ICAO airport designator
Station Type Date Time Source
EPRZ METAR 2021/01/16 03:00 UTC NOAA

EPRZ 160300Z VRB02KT 9999 -SHSN FEW015CB BKN021 M10/M13 Q1017


Station Type Date Time Source
EPRZ Decoded METAR 2021/01/16 03:00 UTC NOAA

Rzeszow-Jasionka, Poland (EPRZ) 50-06N 022-03E 202M
Jan 15, 2021 - 10:00 PM EST / 2021.01.16 0300 UTC
Wind: Variable at 2 MPH (2 KT):0
Visibility: greater than 7 mile(s):0
Sky conditions: mostly cloudy
Weather: light snow showers; Cumulonimbus clouds observed
Temperature: 14 F (-10 C)
Dew Point: 8 F (-13 C)
Relative Humidity: 78%
Pressure (altimeter): 30.03 in. Hg (1017 hPa)
ob: EPRZ 160300Z VRB02KT 9999 -SHSN FEW015CB BKN021 M10/M13 Q1017
cycle: 3

Station Type Date Time Source
EPRZ TAF 2021/01/15 18:35 UTC NOAA

TAF EPRZ 151730Z 1518/1618 26010KT 9999 BKN020
TEMPO 1518/1522 2500 SHSN SCT007 BKN017CB PROB40
TEMPO 1518/1522 0700 +SHSNGS BKN004 BKN015CB
BECMG 1520/1522 35011KT
BECMG 1600/1603 26007KT
BECMG 1603/1606 BKN012
TEMPO 1606/1612 4000 -SN BKN007 OVC010
BECMG 1612/1615 26016G27KT 2000 SN DRSN OVC008
TEMPO 1615/1618 0500 +SN BKN003 OVC007

Example: see airport list